createdAt,value
2023-01-28T00:01:26.843Z,100.00
2023-01-28T00:03:53.776Z,100.00
2023-01-28T00:06:20.783Z,100.00
2023-01-28T00:08:48.771Z,100.00
2023-01-28T00:11:15.706Z,100.00
2023-01-28T00:13:42.834Z,100.00
2023-01-28T00:16:10.074Z,100.00
2023-01-28T00:18:38.059Z,100.00
2023-01-28T00:21:12.712Z,100.00
2023-01-28T00:23:42.405Z,100.00
2023-01-28T00:26:15.183Z,100.00
2023-01-28T00:28:43.099Z,100.00
2023-01-28T00:31:17.006Z,100.00
2023-01-28T00:33:46.112Z,100.00
2023-01-28T00:36:14.357Z,100.00
2023-01-28T00:38:42.597Z,100.00
2023-01-28T00:41:16.696Z,100.00
2023-01-28T00:43:45.456Z,100.00
2023-01-28T00:46:14.180Z,100.00
2023-01-28T00:48:43.571Z,100.00
2023-01-28T00:51:13.082Z,100.00
2023-01-28T00:53:40.720Z,100.00
2023-01-28T00:56:11.828Z,100.00
2023-01-28T00:58:38.920Z,100.00
2023-01-28T01:01:15.442Z,100.00
2023-01-28T01:03:42.955Z,100.00
2023-01-28T01:06:12.226Z,100.00
2023-01-28T01:08:42.866Z,100.00
2023-01-28T01:11:11.717Z,100.00
2023-01-28T01:13:39.067Z,100.00
2023-01-28T01:16:12.795Z,100.00
2023-01-28T01:18:43.426Z,100.00
2023-01-28T01:21:17.538Z,100.00
2023-01-28T01:23:45.185Z,100.00
2023-01-28T01:26:13.323Z,100.00
2023-01-28T01:28:40.410Z,100.00
2023-01-28T01:31:14.925Z,100.00
2023-01-28T01:33:47.616Z,100.00
2023-01-28T01:36:17.224Z,100.00
2023-01-28T01:38:44.218Z,100.00
2023-01-28T01:41:30.497Z,100.00
2023-01-28T01:44:03.785Z,100.00
2023-01-28T01:46:40.034Z,100.00
2023-01-28T01:49:26.198Z,100.00
2023-01-28T01:52:03.632Z,100.00
2023-01-28T01:54:32.352Z,100.00
2023-01-28T01:57:00.270Z,100.00
2023-01-28T01:59:30.341Z,100.00
2023-01-28T02:02:01.574Z,100.00
2023-01-28T02:04:40.301Z,100.00
2023-01-28T02:07:09.621Z,100.00
2023-01-28T02:09:38.381Z,100.00
2023-01-28T02:12:13.995Z,100.00
2023-01-28T02:15:17.259Z,100.00
2023-01-28T02:17:44.888Z,100.00
2023-01-28T02:20:26.044Z,100.00
2023-01-28T02:23:55.921Z,100.00
2023-01-28T02:27:10.383Z,100.00
2023-01-28T02:29:53.218Z,100.00
2023-01-28T02:32:53.669Z,100.00
2023-01-28T02:35:36.248Z,100.00
2023-01-28T02:38:16.705Z,100.00
2023-01-28T02:41:09.809Z,100.00
2023-01-28T02:43:46.364Z,100.00
2023-01-28T02:46:51.043Z,100.00
2023-01-28T02:49:56.603Z,100.00
2023-01-28T02:52:53.115Z,100.00
2023-01-28T02:56:00.965Z,100.00
2023-01-28T02:58:46.338Z,100.00
2023-01-28T03:01:39.259Z,100.00
2023-01-28T03:04:27.177Z,100.00
2023-01-28T03:06:58.530Z,100.00
2023-01-28T03:09:27.230Z,100.00
2023-01-28T03:12:25.734Z,100.00
2023-01-28T03:15:34.923Z,100.00
2023-01-28T03:18:37.009Z,100.00
2023-01-28T03:21:31.405Z,100.00
2023-01-28T03:24:27.490Z,100.00
2023-01-28T03:27:52.151Z,100.00
2023-01-28T03:30:48.159Z,100.00
2023-01-28T03:33:34.903Z,100.00
2023-01-28T03:36:21.659Z,100.00
2023-01-28T03:38:48.895Z,100.00
2023-01-28T03:41:26.987Z,100.00
2023-01-28T03:43:54.805Z,100.00
2023-01-28T03:46:21.887Z,100.00
2023-01-28T03:48:48.779Z,100.00
2023-01-28T03:51:16.637Z,100.00
2023-01-28T03:53:43.514Z,100.00
2023-01-28T03:56:18.508Z,100.00
2023-01-28T03:58:56.699Z,100.00
2023-01-28T04:01:24.323Z,100.00
2023-01-28T04:03:51.430Z,100.00
2023-01-28T04:06:18.377Z,100.00
2023-01-28T04:08:48.968Z,100.00
2023-01-28T04:11:16.018Z,100.00
2023-01-28T04:13:43.877Z,100.00
2023-01-28T04:16:12.517Z,100.00
2023-01-28T04:18:39.724Z,100.00
2023-01-28T04:21:06.712Z,100.00
2023-01-28T04:23:33.587Z,100.00
2023-01-28T04:26:00.550Z,100.00
2023-01-28T04:28:28.517Z,100.00
2023-01-28T04:30:55.410Z,100.00
2023-01-28T04:33:22.474Z,100.00
2023-01-28T04:35:49.435Z,100.00
2023-01-28T04:38:16.321Z,100.00
2023-01-28T04:40:43.204Z,100.00
2023-01-28T04:43:10.214Z,100.00
2023-01-28T04:45:37.207Z,100.00
2023-01-28T04:48:04.222Z,100.00
2023-01-28T04:50:31.148Z,100.00
2023-01-28T04:52:58.015Z,100.00
2023-01-28T04:55:25.034Z,100.00
2023-01-28T04:57:52.414Z,100.00
2023-01-28T05:00:19.783Z,100.00
2023-01-28T05:02:46.680Z,100.00
2023-01-28T05:05:13.922Z,100.00
2023-01-28T05:07:42.037Z,100.00
2023-01-28T05:10:10.071Z,100.00
2023-01-28T05:12:36.944Z,100.00
2023-01-28T05:15:04.916Z,100.00
2023-01-28T05:17:31.850Z,100.00
2023-01-28T05:19:58.867Z,100.00
2023-01-28T05:22:25.820Z,100.00
2023-01-28T05:24:52.720Z,100.00
2023-01-28T05:27:19.665Z,100.00
2023-01-28T05:29:46.659Z,100.00
2023-01-28T05:32:13.544Z,100.00
2023-01-28T05:34:40.439Z,100.00
2023-01-28T05:37:07.308Z,100.00
2023-01-28T05:39:34.299Z,100.00
2023-01-28T05:42:01.359Z,100.00
2023-01-28T05:44:28.223Z,100.00
2023-01-28T05:46:55.183Z,100.00
2023-01-28T05:49:22.345Z,100.00
2023-01-28T05:51:49.782Z,100.00
2023-01-28T05:54:16.753Z,100.00
2023-01-28T05:56:43.753Z,100.00
2023-01-28T05:59:12.174Z,100.00
2023-01-28T06:01:39.273Z,100.00
2023-01-28T06:04:06.304Z,100.00
2023-01-28T06:06:33.221Z,100.00
2023-01-28T06:09:00.260Z,100.00
2023-01-28T06:11:27.539Z,100.00
2023-01-28T06:13:54.530Z,100.00
2023-01-28T06:16:21.500Z,100.00
2023-01-28T06:18:48.404Z,100.00
2023-01-28T06:21:15.344Z,100.00
2023-01-28T06:23:42.234Z,100.00
2023-01-28T06:26:09.209Z,100.00
2023-01-28T06:28:36.211Z,100.00
2023-01-28T06:31:03.276Z,100.00
2023-01-28T06:33:30.296Z,100.00
2023-01-28T06:35:57.212Z,100.00
2023-01-28T06:38:24.357Z,100.00
2023-01-28T06:40:53.359Z,100.00
2023-01-28T06:43:20.282Z,100.00
2023-01-28T06:45:47.159Z,100.00
2023-01-28T06:48:14.114Z,100.00
2023-01-28T06:50:41.003Z,100.00
2023-01-28T06:53:07.876Z,100.00
2023-01-28T06:55:34.873Z,100.00
2023-01-28T06:58:01.835Z,100.00
2023-01-28T07:00:28.771Z,100.00
2023-01-28T07:02:57.360Z,100.00
2023-01-28T07:05:25.544Z,100.00
2023-01-28T07:07:52.659Z,100.00
2023-01-28T07:10:19.644Z,100.00
2023-01-28T07:12:46.537Z,100.00
2023-01-28T07:15:15.150Z,100.00
2023-01-28T07:17:42.557Z,100.00
2023-01-28T07:20:12.803Z,100.00
2023-01-28T07:22:42.197Z,100.00
2023-01-28T07:25:10.167Z,100.00
2023-01-28T07:27:37.155Z,100.00
2023-01-28T07:30:05.410Z,100.00
2023-01-28T07:32:32.414Z,100.00
2023-01-28T07:34:59.401Z,100.00
2023-01-28T07:37:26.273Z,100.00
2023-01-28T07:39:53.277Z,100.00
2023-01-28T07:42:20.260Z,100.00
2023-01-28T07:44:47.248Z,100.00
2023-01-28T07:47:14.339Z,100.00
2023-01-28T07:49:41.517Z,100.00
2023-01-28T07:52:09.484Z,100.00
2023-01-28T07:54:36.404Z,100.00
2023-01-28T07:57:09.817Z,100.00
2023-01-28T07:59:36.996Z,100.00
2023-01-28T08:02:04.970Z,100.00
2023-01-28T08:04:32.007Z,100.00
2023-01-28T08:06:58.995Z,100.00
2023-01-28T08:09:25.947Z,100.00
2023-01-28T08:11:53.328Z,100.00
2023-01-28T08:14:20.297Z,100.00
2023-01-28T08:16:48.192Z,100.00
2023-01-28T08:19:15.411Z,100.00
2023-01-28T08:21:42.279Z,100.00
2023-01-28T08:24:09.389Z,100.00
2023-01-28T08:26:36.473Z,100.00
2023-01-28T08:29:03.573Z,100.00
2023-01-28T08:31:30.564Z,100.00
2023-01-28T08:33:57.431Z,100.00
2023-01-28T08:36:24.349Z,100.00
2023-01-28T08:38:55.009Z,100.00
2023-01-28T08:41:22.990Z,100.00
2023-01-28T08:43:50.208Z,100.00
2023-01-28T08:46:17.243Z,100.00
2023-01-28T08:48:44.162Z,100.00
2023-01-28T08:51:11.102Z,100.00
2023-01-28T08:53:38.081Z,100.00
2023-01-28T08:56:05.540Z,100.00
2023-01-28T08:58:32.605Z,100.00
2023-01-28T09:01:05.960Z,100.00
2023-01-28T09:03:33.523Z,100.00
2023-01-28T09:06:02.860Z,100.00
2023-01-28T09:08:29.764Z,100.00
2023-01-28T09:10:58.205Z,100.00
2023-01-28T09:13:25.981Z,100.00
2023-01-28T09:15:53.317Z,100.00
2023-01-28T09:18:20.445Z,100.00
2023-01-28T09:20:47.529Z,100.00
2023-01-28T09:23:14.959Z,100.00
2023-01-28T09:25:42.227Z,100.00
2023-01-28T09:28:09.378Z,100.00
2023-01-28T09:30:38.002Z,100.00
2023-01-28T09:33:06.089Z,100.00
2023-01-28T09:35:34.319Z,100.00
2023-01-28T09:38:01.281Z,100.00
2023-01-28T09:40:41.049Z,100.00
2023-01-28T09:43:41.165Z,100.00
2023-01-28T09:46:18.597Z,100.00
2023-01-28T09:48:52.948Z,100.00
2023-01-28T09:51:33.992Z,100.00
2023-01-28T09:54:42.437Z,100.00
2023-01-28T09:57:42.963Z,100.00
2023-01-28T10:00:20.043Z,100.00
2023-01-28T10:03:22.516Z,100.00
2023-01-28T10:06:15.609Z,100.00
2023-01-28T10:09:21.400Z,100.00
2023-01-28T10:12:11.338Z,100.00
2023-01-28T10:15:17.781Z,100.00
2023-01-28T10:17:49.834Z,100.00
2023-01-28T10:20:52.439Z,100.00
2023-01-28T10:23:27.422Z,100.00
2023-01-28T10:25:57.933Z,100.00
2023-01-28T10:28:30.593Z,100.00
2023-01-28T10:30:57.689Z,100.00
2023-01-28T10:33:37.783Z,100.00
2023-01-28T10:36:05.593Z,99.90
2023-01-28T10:38:32.723Z,100.00
2023-01-28T10:41:05.066Z,100.00
2023-01-28T10:43:42.987Z,100.00
2023-01-28T10:46:19.783Z,100.00
2023-01-28T10:49:07.272Z,100.00
2023-01-28T10:51:40.756Z,100.00
2023-01-28T10:54:24.988Z,100.00
2023-01-28T10:57:02.604Z,100.00
2023-01-28T10:59:41.802Z,100.00
2023-01-28T11:02:36.951Z,100.00
2023-01-28T11:05:27.309Z,100.00
2023-01-28T11:08:15.567Z,100.00
2023-01-28T11:10:43.890Z,100.00
2023-01-28T11:13:22.801Z,100.00
2023-01-28T11:15:59.100Z,100.00
2023-01-28T11:18:29.800Z,99.57
2023-01-28T11:21:03.931Z,100.00
2023-01-28T11:23:38.651Z,98.90
2023-01-28T11:26:23.735Z,99.05
2023-01-28T11:28:51.203Z,99.13
2023-01-28T11:31:19.392Z,99.18
2023-01-28T11:33:53.775Z,97.49
2023-01-28T11:36:24.742Z,98.67
2023-01-28T11:39:24.650Z,98.56
2023-01-28T11:41:52.453Z,98.00
2023-01-28T11:44:25.623Z,97.41
2023-01-28T11:47:22.801Z,98.07
2023-01-28T11:50:32.878Z,99.14
2023-01-28T11:53:32.872Z,97.69
2023-01-28T11:56:38.480Z,97.18
2023-01-28T11:59:59.785Z,97.17
2023-01-28T12:03:02.925Z,95.14
2023-01-28T12:05:53.794Z,96.00
2023-01-28T12:09:00.434Z,96.06
2023-01-28T12:12:11.926Z,97.01
2023-01-28T12:15:20.345Z,96.02
2023-01-28T12:18:18.567Z,94.55
2023-01-28T12:21:11.380Z,94.79
2023-01-28T12:24:18.178Z,95.77
2023-01-28T12:27:04.390Z,94.54
2023-01-28T12:29:50.425Z,95.48
2023-01-28T12:33:10.607Z,96.04
2023-01-28T12:36:16.537Z,96.25
2023-01-28T12:39:21.010Z,95.98
2023-01-28T12:42:18.387Z,93.59
2023-01-28T12:44:57.510Z,92.71
2023-01-28T12:47:36.569Z,92.29
2023-01-28T12:50:19.367Z,92.77
2023-01-28T12:53:32.849Z,91.32
2023-01-28T12:56:34.129Z,91.49
2023-01-28T12:59:11.610Z,91.41
2023-01-28T13:02:14.504Z,91.98
2023-01-28T13:04:53.269Z,90.06
2023-01-28T13:07:44.489Z,91.41
2023-01-28T13:10:36.670Z,90.86
2023-01-28T13:13:05.762Z,89.29
2023-01-28T13:15:36.933Z,90.88
2023-01-28T13:18:05.979Z,90.21
2023-01-28T13:20:47.758Z,92.05
2023-01-28T13:23:39.224Z,91.89
2023-01-28T13:26:24.625Z,91.62
2023-01-28T13:28:53.340Z,91.96
2023-01-28T13:31:24.449Z,91.43
2023-01-28T13:33:54.325Z,91.76
2023-01-28T13:36:30.227Z,90.86
2023-01-28T13:39:19.535Z,91.61
2023-01-28T13:41:52.835Z,91.62
2023-01-28T13:44:32.565Z,92.15
2023-01-28T13:47:24.692Z,91.89
2023-01-28T13:49:57.856Z,91.27
2023-01-28T13:52:44.563Z,92.03
2023-01-28T13:55:11.325Z,91.90
2023-01-28T13:57:56.293Z,91.69
2023-01-28T14:00:48.003Z,94.12
2023-01-28T14:04:15.194Z,90.92
2023-01-28T14:07:01.020Z,90.09
2023-01-28T14:09:53.711Z,91.37
2023-01-28T14:13:01.365Z,91.88
2023-01-28T14:16:14.064Z,90.61
2023-01-28T14:18:45.737Z,90.63
2023-01-28T14:21:18.857Z,90.98
2023-01-28T14:23:50.086Z,91.28
2023-01-28T14:26:34.778Z,90.10
2023-01-28T14:29:16.581Z,89.72
2023-01-28T14:31:43.743Z,90.04
2023-01-28T14:34:29.817Z,89.02
2023-01-28T14:37:10.203Z,89.50
2023-01-28T14:40:06.615Z,89.47
2023-01-28T14:42:40.715Z,92.98
2023-01-28T14:45:45.322Z,94.26
2023-01-28T14:48:21.107Z,95.90
2023-01-28T14:51:21.168Z,95.36
2023-01-28T14:54:18.541Z,96.07
2023-01-28T14:57:35.799Z,95.89
2023-01-28T15:00:02.948Z,96.87
2023-01-28T15:02:31.790Z,96.08
2023-01-28T15:05:23.212Z,96.69
2023-01-28T15:07:50.960Z,96.53
2023-01-28T15:10:20.794Z,96.22
2023-01-28T15:12:56.443Z,97.18
2023-01-28T15:15:46.792Z,97.32
2023-01-28T15:18:23.398Z,96.65
2023-01-28T15:20:56.190Z,97.09
2023-01-28T15:23:35.549Z,96.08
2023-01-28T15:26:24.952Z,96.12
2023-01-28T15:28:53.404Z,97.15
2023-01-28T15:31:28.740Z,96.26
2023-01-28T15:34:14.714Z,95.50
2023-01-28T15:36:42.591Z,94.43
2023-01-28T15:39:22.087Z,95.92
2023-01-28T15:42:01.414Z,97.15
2023-01-28T15:44:43.896Z,95.98
2023-01-28T15:47:24.225Z,95.46
2023-01-28T15:49:55.767Z,95.95
2023-01-28T15:52:34.393Z,96.31
2023-01-28T15:55:04.452Z,97.22
2023-01-28T15:57:37.180Z,96.74
2023-01-28T16:00:07.008Z,97.64
2023-01-28T16:02:34.526Z,97.52
2023-01-28T16:05:10.962Z,95.83
2023-01-28T16:07:46.357Z,96.67
2023-01-28T16:10:27.118Z,96.14
2023-01-28T16:13:20.032Z,96.84
2023-01-28T16:15:49.678Z,96.37
2023-01-28T16:18:49.085Z,96.54
2023-01-28T16:21:29.911Z,96.63
2023-01-28T16:24:18.504Z,97.48
2023-01-28T16:27:03.042Z,98.14
2023-01-28T16:29:31.349Z,98.66
2023-01-28T16:32:00.032Z,98.24
2023-01-28T16:34:27.722Z,96.88
2023-01-28T16:37:01.668Z,97.70
2023-01-28T16:39:29.929Z,96.89
2023-01-28T16:41:57.080Z,98.66
2023-01-28T16:44:24.054Z,97.99
2023-01-28T16:46:51.433Z,96.96
2023-01-28T16:49:18.461Z,97.41
2023-01-28T16:51:45.371Z,97.80
2023-01-28T16:54:16.110Z,97.79
2023-01-28T16:56:46.494Z,97.06
2023-01-28T16:59:15.950Z,97.48
2023-01-28T17:01:46.962Z,98.20
2023-01-28T17:04:14.305Z,96.86
2023-01-28T17:06:44.319Z,97.27
2023-01-28T17:09:14.516Z,96.76
2023-01-28T17:11:42.083Z,97.58
2023-01-28T17:14:11.202Z,96.65
2023-01-28T17:16:38.598Z,96.21
2023-01-28T17:19:06.807Z,97.05
2023-01-28T17:21:33.923Z,96.78
2023-01-28T17:24:01.651Z,96.30
2023-01-28T17:26:31.861Z,96.79
2023-01-28T17:28:58.842Z,96.14
2023-01-28T17:31:26.460Z,95.92
2023-01-28T17:33:55.863Z,96.81
2023-01-28T17:36:24.513Z,96.73
2023-01-28T17:38:52.344Z,95.93
2023-01-28T17:41:19.619Z,96.53
2023-01-28T17:43:54.883Z,96.03
2023-01-28T17:46:24.143Z,96.60
2023-01-28T17:48:52.982Z,96.62
2023-01-28T17:51:20.424Z,94.84
2023-01-28T17:53:49.453Z,95.46
2023-01-28T17:56:22.877Z,95.54
2023-01-28T17:58:58.187Z,95.75
2023-01-28T18:01:26.455Z,95.79
2023-01-28T18:03:54.952Z,95.31
2023-01-28T18:06:22.292Z,95.02
2023-01-28T18:08:49.347Z,94.37
2023-01-28T18:11:19.574Z,93.96
2023-01-28T18:13:47.188Z,93.68
2023-01-28T18:16:18.056Z,94.02
2023-01-28T18:18:47.279Z,94.64
2023-01-28T18:21:51.259Z,94.11
2023-01-28T18:24:19.852Z,95.49
2023-01-28T18:26:46.871Z,95.53
2023-01-28T18:29:16.883Z,94.82
2023-01-28T18:31:44.207Z,94.95
2023-01-28T18:34:11.247Z,95.52
2023-01-28T18:36:38.141Z,94.00
2023-01-28T18:39:05.223Z,95.40
2023-01-28T18:41:32.143Z,94.17
2023-01-28T18:43:59.023Z,94.19
2023-01-28T18:46:26.105Z,91.64
2023-01-28T18:48:53.061Z,92.43
2023-01-28T18:51:30.161Z,92.45
2023-01-28T18:54:03.945Z,93.13
2023-01-28T18:56:32.093Z,91.58
2023-01-28T18:59:04.580Z,92.15
2023-01-28T19:01:34.343Z,93.24
2023-01-28T19:04:02.025Z,94.11
2023-01-28T19:06:30.794Z,93.80
2023-01-28T19:09:01.120Z,92.51
2023-01-28T19:11:30.190Z,91.49
2023-01-28T19:13:57.174Z,90.74
2023-01-28T19:16:25.362Z,91.96
2023-01-28T19:18:58.149Z,91.08
2023-01-28T19:21:27.119Z,91.74
2023-01-28T19:24:09.421Z,93.00
2023-01-28T19:26:38.013Z,93.57
2023-01-28T19:29:09.374Z,93.30
2023-01-28T19:31:37.545Z,91.61
2023-01-28T19:34:06.858Z,91.46
2023-01-28T19:36:35.176Z,92.04
2023-01-28T19:39:06.969Z,92.16
2023-01-28T19:41:34.877Z,93.86
2023-01-28T19:44:02.265Z,94.28
2023-01-28T19:46:29.341Z,93.29
2023-01-28T19:48:56.517Z,91.62
2023-01-28T19:51:24.389Z,90.23
2023-01-28T19:53:53.642Z,90.51
2023-01-28T19:56:24.674Z,90.92
2023-01-28T19:58:54.711Z,91.15
2023-01-28T20:01:30.259Z,90.39
2023-01-28T20:04:00.077Z,89.91
2023-01-28T20:06:29.368Z,91.09
2023-01-28T20:09:14.378Z,89.89
2023-01-28T20:11:41.348Z,90.00
2023-01-28T20:14:08.222Z,89.29
2023-01-28T20:16:37.576Z,89.43
2023-01-28T20:19:07.982Z,89.48
2023-01-28T20:21:36.240Z,89.78
2023-01-28T20:24:04.454Z,89.33
2023-01-28T20:26:35.232Z,89.30
2023-01-28T20:29:11.591Z,88.65
2023-01-28T20:31:39.804Z,88.44
2023-01-28T20:34:07.989Z,87.76
2023-01-28T20:36:34.983Z,87.49
2023-01-28T20:39:02.000Z,88.70
2023-01-28T20:41:28.936Z,86.76
2023-01-28T20:43:56.541Z,87.54
2023-01-28T20:46:28.014Z,86.52
2023-01-28T20:48:57.458Z,86.49
2023-01-28T20:51:27.902Z,85.78
2023-01-28T20:53:55.576Z,85.46
2023-01-28T20:56:25.516Z,86.37
2023-01-28T20:58:59.377Z,87.44
2023-01-28T21:01:30.596Z,88.86
2023-01-28T21:03:57.611Z,87.19
2023-01-28T21:06:25.512Z,87.44
2023-01-28T21:08:53.176Z,88.29
2023-01-28T21:11:22.418Z,88.97
2023-01-28T21:13:49.541Z,89.03
2023-01-28T21:16:17.615Z,88.69
2023-01-28T21:18:44.843Z,88.03
2023-01-28T21:21:25.765Z,86.44
2023-01-28T21:23:57.921Z,87.19
2023-01-28T21:26:25.287Z,86.63
2023-01-28T21:28:52.463Z,86.43
2023-01-28T21:31:23.063Z,87.14
2023-01-28T21:33:55.577Z,87.81
2023-01-28T21:36:24.085Z,87.89
2023-01-28T21:38:58.853Z,87.43
2023-01-28T21:41:26.772Z,87.06
2023-01-28T21:43:55.303Z,87.51
2023-01-28T21:46:30.683Z,87.81
2023-01-28T21:49:03.491Z,86.22
2023-01-28T21:51:36.130Z,88.25
2023-01-28T21:54:09.565Z,87.56
2023-01-28T21:56:36.508Z,87.81
2023-01-28T21:59:22.290Z,87.91
2023-01-28T22:01:49.638Z,87.46
2023-01-28T22:04:16.721Z,86.84
2023-01-28T22:06:45.106Z,87.45
2023-01-28T22:09:13.590Z,87.96
2023-01-28T22:11:42.316Z,87.63
2023-01-28T22:14:10.306Z,85.85
2023-01-28T22:16:37.400Z,85.89
2023-01-28T22:19:05.231Z,87.27
2023-01-28T22:21:32.463Z,86.25
2023-01-28T22:23:59.500Z,85.71
2023-01-28T22:26:26.568Z,85.53
2023-01-28T22:28:53.551Z,85.30
2023-01-28T22:31:20.579Z,85.29
2023-01-28T22:33:47.546Z,84.98
2023-01-28T22:36:16.260Z,86.41
2023-01-28T22:38:45.020Z,86.11
2023-01-28T22:41:23.198Z,86.79
2023-01-28T22:43:52.508Z,86.70
2023-01-28T22:46:21.830Z,85.89
2023-01-28T22:48:49.575Z,87.48
2023-01-28T22:51:42.628Z,87.87
2023-01-28T22:54:11.920Z,87.49
2023-01-28T22:56:40.206Z,86.71
2023-01-28T22:59:07.174Z,87.72
2023-01-28T23:01:39.080Z,85.97
2023-01-28T23:04:05.957Z,86.44
2023-01-28T23:06:33.728Z,85.73
2023-01-28T23:09:00.679Z,87.28
2023-01-28T23:11:28.322Z,87.65
2023-01-28T23:14:20.952Z,87.61
2023-01-28T23:17:07.510Z,88.32
2023-01-28T23:19:53.798Z,88.98
2023-01-28T23:22:47.227Z,88.67
2023-01-28T23:25:14.864Z,88.52
2023-01-28T23:27:42.636Z,87.89
2023-01-28T23:30:11.833Z,88.96
2023-01-28T23:32:48.689Z,89.03
2023-01-28T23:35:17.220Z,87.86
2023-01-28T23:37:44.375Z,89.30
2023-01-28T23:40:12.670Z,89.57
2023-01-28T23:42:39.649Z,90.57
2023-01-28T23:45:07.672Z,88.66
2023-01-28T23:47:34.542Z,89.10
2023-01-28T23:50:01.944Z,88.04
2023-01-28T23:52:29.048Z,88.79
2023-01-28T23:54:56.210Z,88.51
2023-01-28T23:57:23.190Z,88.67
2023-01-28T23:59:51.444Z,88.53
